sensor_id;sensor_type;location;lat;lon;timestamp;P1;P2;P0
62054;PMS5003;48653;51.742;-1.256;2023-03-21T00:03:44;6;6;
62054;PMS5003;48653;51.742;-1.256;2023-03-21T00:06:10;7;7;
62054;PMS5003;48653;51.742;-1.256;2023-03-21T00:08:35;6;6;
62054;PMS5003;48653;51.742;-1.256;2023-03-21T00:11:00;11;8;
62054;PMS5003;48653;51.742;-1.256;2023-03-21T00:13:26;12;9;
62054;PMS5003;48653;51.742;-1.256;2023-03-21T00:15:50;8;7;
62054;PMS5003;48653;51.742;-1.256;2023-03-21T00:18:16;9;8;
62054;PMS5003;48653;51.742;-1.256;2023-03-21T00:23:06;7;7;
62054;PMS5003;48653;51.742;-1.256;2023-03-21T00:25:31;17;11;
62054;PMS5003;48653;51.742;-1.256;2023-03-21T00:27:57;8;8;
62054;PMS5003;48653;51.742;-1.256;2023-03-21T00:30:22;6;6;
62054;PMS5003;48653;51.742;-1.256;2023-03-21T00:32:47;8;6;
62054;PMS5003;48653;51.742;-1.256;2023-03-21T00:35:13;10;10;
62054;PMS5003;48653;51.742;-1.256;2023-03-21T00:37:38;8;7;
62054;PMS5003;48653;51.742;-1.256;2023-03-21T00:40:04;7;7;
62054;PMS5003;48653;51.742;-1.256;2023-03-21T00:42:28;12;7;
62054;PMS5003;48653;51.742;-1.256;2023-03-21T00:44:54;10;8;
62054;PMS5003;48653;51.742;-1.256;2023-03-21T00:47:19;7;6;
62054;PMS5003;48653;51.742;-1.256;2023-03-21T00:49:45;8;6;
62054;PMS5003;48653;51.742;-1.256;2023-03-21T00:52:10;9;8;
62054;PMS5003;48653;51.742;-1.256;2023-03-21T00:54:35;6;6;
62054;PMS5003;48653;51.742;-1.256;2023-03-21T00:57:01;10;8;
62054;PMS5003;48653;51.742;-1.256;2023-03-21T00:59:26;9;8;
62054;PMS5003;48653;51.742;-1.256;2023-03-21T01:01:51;10;10;
62054;PMS5003;48653;51.742;-1.256;2023-03-21T01:04:16;7;7;
62054;PMS5003;48653;51.742;-1.256;2023-03-21T01:06:42;6;6;
62054;PMS5003;48653;51.742;-1.256;2023-03-21T01:09:08;9;7;
62054;PMS5003;48653;51.742;-1.256;2023-03-21T01:11:33;9;7;
62054;PMS5003;48653;51.742;-1.256;2023-03-21T01:13:57;13;7;
62054;PMS5003;48653;51.742;-1.256;2023-03-21T01:16:22;11;7;
62054;PMS5003;48653;51.742;-1.256;2023-03-21T01:18:47;6;6;
62054;PMS5003;48653;51.742;-1.256;2023-03-21T01:21:13;8;6;
62054;PMS5003;48653;51.742;-1.256;2023-03-21T01:23:38;8;7;
62054;PMS5003;48653;51.742;-1.256;2023-03-21T01:26:03;10;8;
62054;PMS5003;48653;51.742;-1.256;2023-03-21T01:28:28;9;7;
62054;PMS5003;48653;51.742;-1.256;2023-03-21T01:30:53;11;10;
62054;PMS5003;48653;51.742;-1.256;2023-03-21T01:33:19;7;5;
62054;PMS5003;48653;51.742;-1.256;2023-03-21T01:35:44;10;7;
62054;PMS5003;48653;51.742;-1.256;2023-03-21T01:38:09;8;6;
62054;PMS5003;48653;51.742;-1.256;2023-03-21T01:40:35;6;5;
62054;PMS5003;48653;51.742;-1.256;2023-03-21T01:43:00;9;9;
62054;PMS5003;48653;51.742;-1.256;2023-03-21T01:47:50;6;4;
62054;PMS5003;48653;51.742;-1.256;2023-03-21T01:50:16;5;5;
62054;PMS5003;48653;51.742;-1.256;2023-03-21T01:52:41;4;3;
62054;PMS5003;48653;51.742;-1.256;2023-03-21T01:55:07;9;6;
62054;PMS5003;48653;51.742;-1.256;2023-03-21T01:57:33;12;9;
62054;PMS5003;48653;51.742;-1.256;2023-03-21T01:59:57;8;4;
62054;PMS5003;48653;51.742;-1.256;2023-03-21T02:02:23;5;4;
62054;PMS5003;48653;51.742;-1.256;2023-03-21T02:04:47;7;3;
62054;PMS5003;48653;51.742;-1.256;2023-03-21T02:07:13;5;4;
62054;PMS5003;48653;51.742;-1.256;2023-03-21T02:09:38;5;4;
62054;PMS5003;48653;51.742;-1.256;2023-03-21T02:12:02;4;4;
62054;PMS5003;48653;51.742;-1.256;2023-03-21T02:14:27;7;6;
62054;PMS5003;48653;51.742;-1.256;2023-03-21T02:16:56;7;4;
62054;PMS5003;48653;51.742;-1.256;2023-03-21T02:19:24;5;5;
62054;PMS5003;48653;51.742;-1.256;2023-03-21T02:26:43;5;5;
62054;PMS5003;48653;51.742;-1.256;2023-03-21T02:28:59;5;5;
62054;PMS5003;48653;51.742;-1.256;2023-03-21T02:31:25;4;4;
62054;PMS5003;48653;51.742;-1.256;2023-03-21T02:33:55;4;4;
62054;PMS5003;48653;51.742;-1.256;2023-03-21T02:36:15;8;6;
62054;PMS5003;48653;51.742;-1.256;2023-03-21T02:38:40;4;4;
62054;PMS5003;48653;51.742;-1.256;2023-03-21T02:41:05;8;6;
62054;PMS5003;48653;51.742;-1.256;2023-03-21T02:43:30;10;6;
62054;PMS5003;48653;51.742;-1.256;2023-03-21T02:45:55;5;4;
62054;PMS5003;48653;51.742;-1.256;2023-03-21T02:48:21;8;5;
62054;PMS5003;48653;51.742;-1.256;2023-03-21T02:50:46;9;7;
62054;PMS5003;48653;51.742;-1.256;2023-03-21T02:53:11;10;7;
62054;PMS5003;48653;51.742;-1.256;2023-03-21T02:55:35;7;5;
62054;PMS5003;48653;51.742;-1.256;2023-03-21T02:58:03;8;6;
62054;PMS5003;48653;51.742;-1.256;2023-03-21T03:00:26;10;7;
62054;PMS5003;48653;51.742;-1.256;2023-03-21T03:02:51;9;6;
62054;PMS5003;48653;51.742;-1.256;2023-03-21T03:05:17;11;9;
62054;PMS5003;48653;51.742;-1.256;2023-03-21T03:07:43;11;8;
62054;PMS5003;48653;51.742;-1.256;2023-03-21T03:10:11;9;7;
62054;PMS5003;48653;51.742;-1.256;2023-03-21T03:12:33;7;7;
62054;PMS5003;48653;51.742;-1.256;2023-03-21T03:14:58;6;5;
62054;PMS5003;48653;51.742;-1.256;2023-03-21T03:17:25;14;6;
62054;PMS5003;48653;51.742;-1.256;2023-03-21T03:19:53;9;9;
62054;PMS5003;48653;51.742;-1.256;2023-03-21T03:22:14;13;9;
62054;PMS5003;48653;51.742;-1.256;2023-03-21T03:24:41;8;7;
62054;PMS5003;48653;51.742;-1.256;2023-03-21T03:27:05;7;7;
62054;PMS5003;48653;51.742;-1.256;2023-03-21T03:29:29;9;8;
62054;PMS5003;48653;51.742;-1.256;2023-03-21T03:31:55;10;10;
62054;PMS5003;48653;51.742;-1.256;2023-03-21T03:34:20;9;9;
62054;PMS5003;48653;51.742;-1.256;2023-03-21T03:36:46;9;8;
62054;PMS5003;48653;51.742;-1.256;2023-03-21T03:39:10;6;6;
62054;PMS5003;48653;51.742;-1.256;2023-03-21T03:41:37;9;9;
62054;PMS5003;48653;51.742;-1.256;2023-03-21T03:44:00;8;8;
62054;PMS5003;48653;51.742;-1.256;2023-03-21T03:46:28;9;7;
62054;PMS5003;48653;51.742;-1.256;2023-03-21T03:48:52;9;6;
62054;PMS5003;48653;51.742;-1.256;2023-03-21T03:51:18;7;5;
62054;PMS5003;48653;51.742;-1.256;2023-03-21T03:53:42;8;7;
62054;PMS5003;48653;51.742;-1.256;2023-03-21T03:56:07;8;8;
62054;PMS5003;48653;51.742;-1.256;2023-03-21T03:58:32;7;5;
62054;PMS5003;48653;51.742;-1.256;2023-03-21T04:00:57;9;8;
62054;PMS5003;48653;51.742;-1.256;2023-03-21T04:03:22;7;6;
62054;PMS5003;48653;51.742;-1.256;2023-03-21T04:05:47;7;6;
62054;PMS5003;48653;51.742;-1.256;2023-03-21T04:08:13;7;5;
62054;PMS5003;48653;51.742;-1.256;2023-03-21T04:10:38;6;6;
62054;PMS5003;48653;51.742;-1.256;2023-03-21T04:13:03;7;5;
62054;PMS5003;48653;51.742;-1.256;2023-03-21T04:15:28;8;4;
62054;PMS5003;48653;51.742;-1.256;2023-03-21T04:17:53;4;4;
62054;PMS5003;48653;51.742;-1.256;2023-03-21T04:20:18;8;3;
62054;PMS5003;48653;51.742;-1.256;2023-03-21T04:22:43;7;4;
62054;PMS5003;48653;51.742;-1.256;2023-03-21T04:25:08;4;4;
62054;PMS5003;48653;51.742;-1.256;2023-03-21T04:27:34;8;5;
62054;PMS5003;48653;51.742;-1.256;2023-03-21T04:29:59;4;4;
62054;PMS5003;48653;51.742;-1.256;2023-03-21T04:32:24;4;3;
62054;PMS5003;48653;51.742;-1.256;2023-03-21T04:34:49;4;3;
62054;PMS5003;48653;51.742;-1.256;2023-03-21T04:37:14;3;3;
62054;PMS5003;48653;51.742;-1.256;2023-03-21T04:39:39;2;2;
62054;PMS5003;48653;51.742;-1.256;2023-03-21T04:42:04;5;3;
62054;PMS5003;48653;51.742;-1.256;2023-03-21T04:44:29;4;2;
62054;PMS5003;48653;51.742;-1.256;2023-03-21T04:46:55;8;3;
62054;PMS5003;48653;51.742;-1.256;2023-03-21T04:49:20;3;2;
62054;PMS5003;48653;51.742;-1.256;2023-03-21T04:51:45;4;4;
62054;PMS5003;48653;51.742;-1.256;2023-03-21T04:54:10;7;4;
62054;PMS5003;48653;51.742;-1.256;2023-03-21T04:56:35;5;3;
62054;PMS5003;48653;51.742;-1.256;2023-03-21T04:59:01;3;3;
62054;PMS5003;48653;51.742;-1.256;2023-03-21T05:01:26;4;3;
62054;PMS5003;48653;51.742;-1.256;2023-03-21T05:03:50;5;5;
62054;PMS5003;48653;51.742;-1.256;2023-03-21T05:06:16;4;4;
62054;PMS5003;48653;51.742;-1.256;2023-03-21T05:08:41;4;3;
62054;PMS5003;48653;51.742;-1.256;2023-03-21T05:11:06;3;3;
62054;PMS5003;48653;51.742;-1.256;2023-03-21T05:13:31;4;1;
62054;PMS5003;48653;51.742;-1.256;2023-03-21T05:15:57;3;3;
62054;PMS5003;48653;51.742;-1.256;2023-03-21T05:18:22;2;2;
62054;PMS5003;48653;51.742;-1.256;2023-03-21T05:20:47;3;2;
62054;PMS5003;48653;51.742;-1.256;2023-03-21T05:23:12;5;3;
62054;PMS5003;48653;51.742;-1.256;2023-03-21T05:25:38;2;1;
62054;PMS5003;48653;51.742;-1.256;2023-03-21T05:28:03;2;2;
62054;PMS5003;48653;51.742;-1.256;2023-03-21T05:30:28;4;4;
62054;PMS5003;48653;51.742;-1.256;2023-03-21T05:32:53;3;3;
62054;PMS5003;48653;51.742;-1.256;2023-03-21T05:35:18;3;3;
62054;PMS5003;48653;51.742;-1.256;2023-03-21T05:37:43;5;1;
62054;PMS5003;48653;51.742;-1.256;2023-03-21T05:40:09;5;3;
62054;PMS5003;48653;51.742;-1.256;2023-03-21T05:42:33;5;3;
62054;PMS5003;48653;51.742;-1.256;2023-03-21T05:44:58;3;2;
62054;PMS5003;48653;51.742;-1.256;2023-03-21T05:47:24;1;1;
62054;PMS5003;48653;51.742;-1.256;2023-03-21T05:49:49;5;1;
62054;PMS5003;48653;51.742;-1.256;2023-03-21T05:52:14;3;2;
62054;PMS5003;48653;51.742;-1.256;2023-03-21T05:54:39;7;3;
62054;PMS5003;48653;51.742;-1.256;2023-03-21T05:57:04;3;3;
62054;PMS5003;48653;51.742;-1.256;2023-03-21T05:59:29;5;2;
62054;PMS5003;48653;51.742;-1.256;2023-03-21T06:01:54;3;3;
62054;PMS5003;48653;51.742;-1.256;2023-03-21T06:04:19;2;2;
62054;PMS5003;48653;51.742;-1.256;2023-03-21T06:06:44;5;2;
62054;PMS5003;48653;51.742;-1.256;2023-03-21T06:09:09;3;3;
62054;PMS5003;48653;51.742;-1.256;2023-03-21T06:11:35;6;6;
62054;PMS5003;48653;51.742;-1.256;2023-03-21T06:14:00;3;3;
62054;PMS5003;48653;51.742;-1.256;2023-03-21T06:16:25;3;3;
62054;PMS5003;48653;51.742;-1.256;2023-03-21T06:18:50;2;2;
62054;PMS5003;48653;51.742;-1.256;2023-03-21T06:21:15;3;3;
62054;PMS5003;48653;51.742;-1.256;2023-03-21T06:23:40;2;2;
62054;PMS5003;48653;51.742;-1.256;2023-03-21T06:26:06;4;4;
62054;PMS5003;48653;51.742;-1.256;2023-03-21T06:28:31;2;2;
62054;PMS5003;48653;51.742;-1.256;2023-03-21T06:30:56;2;2;
62054;PMS5003;48653;51.742;-1.256;2023-03-21T06:33:21;4;4;
62054;PMS5003;48653;51.742;-1.256;2023-03-21T06:35:49;2;2;
62054;PMS5003;48653;51.742;-1.256;2023-03-21T06:38:11;3;3;
62054;PMS5003;48653;51.742;-1.256;2023-03-21T06:40:37;6;3;
62054;PMS5003;48653;51.742;-1.256;2023-03-21T06:43:02;5;4;
62054;PMS5003;48653;51.742;-1.256;2023-03-21T06:45:27;1;1;
62054;PMS5003;48653;51.742;-1.256;2023-03-21T06:47:52;3;1;
62054;PMS5003;48653;51.742;-1.256;2023-03-21T06:50:17;1;0;
62054;PMS5003;48653;51.742;-1.256;2023-03-21T06:52:42;1;1;
62054;PMS5003;48653;51.742;-1.256;2023-03-21T06:55:07;2;2;
62054;PMS5003;48653;51.742;-1.256;2023-03-21T06:57:32;1;1;
62054;PMS5003;48653;51.742;-1.256;2023-03-21T06:59:57;1;1;
62054;PMS5003;48653;51.742;-1.256;2023-03-21T07:02:22;1;1;
62054;PMS5003;48653;51.742;-1.256;2023-03-21T07:04:47;2;2;
62054;PMS5003;48653;51.742;-1.256;2023-03-21T07:07:12;2;2;
62054;PMS5003;48653;51.742;-1.256;2023-03-21T07:09:38;2;2;
62054;PMS5003;48653;51.742;-1.256;2023-03-21T07:12:02;2;2;
62054;PMS5003;48653;51.742;-1.256;2023-03-21T07:14:28;3;3;
62054;PMS5003;48653;51.742;-1.256;2023-03-21T07:16:53;5;3;
62054;PMS5003;48653;51.742;-1.256;2023-03-21T07:19:18;3;3;
62054;PMS5003;48653;51.742;-1.256;2023-03-21T07:21:43;0;0;
62054;PMS5003;48653;51.742;-1.256;2023-03-21T07:24:08;4;2;
62054;PMS5003;48653;51.742;-1.256;2023-03-21T07:26:33;2;2;
62054;PMS5003;48653;51.742;-1.256;2023-03-21T07:28:58;0;0;
62054;PMS5003;48653;51.742;-1.256;2023-03-21T07:31:23;3;3;
62054;PMS5003;48653;51.742;-1.256;2023-03-21T07:33:48;7;3;
62054;PMS5003;48653;51.742;-1.256;2023-03-21T07:36:14;2;2;
62054;PMS5003;48653;51.742;-1.256;2023-03-21T07:38:38;2;2;
62054;PMS5003;48653;51.742;-1.256;2023-03-21T07:41:04;7;4;
62054;PMS5003;48653;51.742;-1.256;2023-03-21T07:43:29;2;2;
62054;PMS5003;48653;51.742;-1.256;2023-03-21T07:45:55;4;4;
62054;PMS5003;48653;51.742;-1.256;2023-03-21T07:48:19;3;3;
62054;PMS5003;48653;51.742;-1.256;2023-03-21T07:50:44;2;2;
62054;PMS5003;48653;51.742;-1.256;2023-03-21T07:53:09;3;1;
62054;PMS5003;48653;51.742;-1.256;2023-03-21T07:55:34;4;3;
62054;PMS5003;48653;51.742;-1.256;2023-03-21T07:57:59;3;3;
62054;PMS5003;48653;51.742;-1.256;2023-03-21T08:00:24;2;2;
62054;PMS5003;48653;51.742;-1.256;2023-03-21T08:02:50;1;1;
62054;PMS5003;48653;51.742;-1.256;2023-03-21T08:05:14;4;2;
62054;PMS5003;48653;51.742;-1.256;2023-03-21T08:07:39;2;0;
62054;PMS5003;48653;51.742;-1.256;2023-03-21T08:10:05;2;2;
62054;PMS5003;48653;51.742;-1.256;2023-03-21T08:12:30;0;0;
62054;PMS5003;48653;51.742;-1.256;2023-03-21T08:14:55;1;1;
62054;PMS5003;48653;51.742;-1.256;2023-03-21T08:17:20;5;3;
62054;PMS5003;48653;51.742;-1.256;2023-03-21T08:19:45;1;1;
62054;PMS5003;48653;51.742;-1.256;2023-03-21T08:22:10;1;1;
62054;PMS5003;48653;51.742;-1.256;2023-03-21T08:24:35;2;2;
62054;PMS5003;48653;51.742;-1.256;2023-03-21T08:27:00;3;2;
62054;PMS5003;48653;51.742;-1.256;2023-03-21T08:29:25;5;3;
62054;PMS5003;48653;51.742;-1.256;2023-03-21T08:31:50;8;2;
62054;PMS5003;48653;51.742;-1.256;2023-03-21T08:34:15;2;2;
62054;PMS5003;48653;51.742;-1.256;2023-03-21T08:36:40;1;1;
62054;PMS5003;48653;51.742;-1.256;2023-03-21T08:39:05;3;3;
62054;PMS5003;48653;51.742;-1.256;2023-03-21T08:41:31;3;3;
62054;PMS5003;48653;51.742;-1.256;2023-03-21T08:43:56;4;3;
62054;PMS5003;48653;51.742;-1.256;2023-03-21T08:46:21;4;4;
62054;PMS5003;48653;51.742;-1.256;2023-03-21T08:48:46;4;3;
62054;PMS5003;48653;51.742;-1.256;2023-03-21T08:51:11;6;2;
62054;PMS5003;48653;51.742;-1.256;2023-03-21T08:53:36;5;3;
62054;PMS5003;48653;51.742;-1.256;2023-03-21T08:56:01;3;3;
62054;PMS5003;48653;51.742;-1.256;2023-03-21T08:58:26;4;1;
62054;PMS5003;48653;51.742;-1.256;2023-03-21T09:00:51;5;2;
62054;PMS5003;48653;51.742;-1.256;2023-03-21T09:03:16;3;3;
62054;PMS5003;48653;51.742;-1.256;2023-03-21T09:05:41;3;3;
62054;PMS5003;48653;51.742;-1.256;2023-03-21T09:08:07;5;2;
62054;PMS5003;48653;51.742;-1.256;2023-03-21T09:10:32;2;2;
62054;PMS5003;48653;51.742;-1.256;2023-03-21T09:12:57;1;1;
62054;PMS5003;48653;51.742;-1.256;2023-03-21T09:15:24;3;1;
62054;PMS5003;48653;51.742;-1.256;2023-03-21T09:17:47;5;3;
62054;PMS5003;48653;51.742;-1.256;2023-03-21T09:20:12;2;2;
62054;PMS5003;48653;51.742;-1.256;2023-03-21T09:22:38;3;0;
62054;PMS5003;48653;51.742;-1.256;2023-03-21T09:25:04;6;4;
62054;PMS5003;48653;51.742;-1.256;2023-03-21T09:27:28;3;2;
62054;PMS5003;48653;51.742;-1.256;2023-03-21T09:29:53;2;2;
62054;PMS5003;48653;51.742;-1.256;2023-03-21T09:32:19;2;2;
62054;PMS5003;48653;51.742;-1.256;2023-03-21T09:34:43;2;2;
62054;PMS5003;48653;51.742;-1.256;2023-03-21T09:37:09;0;0;
62054;PMS5003;48653;51.742;-1.256;2023-03-21T09:39:34;1;1;
62054;PMS5003;48653;51.742;-1.256;2023-03-21T09:42:02;2;1;
62054;PMS5003;48653;51.742;-1.256;2023-03-21T09:44:27;2;2;
62054;PMS5003;48653;51.742;-1.256;2023-03-21T09:46:49;0;0;
62054;PMS5003;48653;51.742;-1.256;2023-03-21T09:49:15;1;1;
62054;PMS5003;48653;51.742;-1.256;2023-03-21T09:51:39;1;1;
62054;PMS5003;48653;51.742;-1.256;2023-03-21T09:54:06;1;0;
62054;PMS5003;48653;51.742;-1.256;2023-03-21T09:56:29;0;0;
62054;PMS5003;48653;51.742;-1.256;2023-03-21T09:58:54;2;1;
62054;PMS5003;48653;51.742;-1.256;2023-03-21T10:01:20;1;0;
62054;PMS5003;48653;51.742;-1.256;2023-03-21T10:03:45;0;0;
62054;PMS5003;48653;51.742;-1.256;2023-03-21T10:06:11;5;1;
62054;PMS5003;48653;51.742;-1.256;2023-03-21T10:08:35;5;1;
62054;PMS5003;48653;51.742;-1.256;2023-03-21T10:11:01;0;0;
62054;PMS5003;48653;51.742;-1.256;2023-03-21T10:13:26;2;1;
62054;PMS5003;48653;51.742;-1.256;2023-03-21T10:15:50;6;2;
62054;PMS5003;48653;51.742;-1.256;2023-03-21T10:18:18;1;1;
62054;PMS5003;48653;51.742;-1.256;2023-03-21T10:20:41;5;1;
62054;PMS5003;48653;51.742;-1.256;2023-03-21T10:23:07;0;0;
62054;PMS5003;48653;51.742;-1.256;2023-03-21T10:25:32;2;0;
62054;PMS5003;48653;51.742;-1.256;2023-03-21T10:27:56;3;3;
62054;PMS5003;48653;51.742;-1.256;2023-03-21T10:30:25;2;1;
62054;PMS5003;48653;51.742;-1.256;2023-03-21T10:32:47;0;0;
62054;PMS5003;48653;51.742;-1.256;2023-03-21T10:35:13;2;2;
62054;PMS5003;48653;51.742;-1.256;2023-03-21T10:37:38;1;1;
62054;PMS5003;48653;51.742;-1.256;2023-03-21T10:40:03;0;0;
62054;PMS5003;48653;51.742;-1.256;2023-03-21T10:42:29;2;1;
62054;PMS5003;48653;51.742;-1.256;2023-03-21T10:44:53;0;0;
62054;PMS5003;48653;51.742;-1.256;2023-03-21T10:47:18;0;0;
62054;PMS5003;48653;51.742;-1.256;2023-03-21T10:49:43;0;0;
62054;PMS5003;48653;51.742;-1.256;2023-03-21T10:52:09;7;6;
62054;PMS5003;48653;51.742;-1.256;2023-03-21T10:54:34;1;0;
62054;PMS5003;48653;51.742;-1.256;2023-03-21T10:57:00;1;0;
62054;PMS5003;48653;51.742;-1.256;2023-03-21T10:59:24;4;0;
62054;PMS5003;48653;51.742;-1.256;2023-03-21T11:01:49;0;0;
62054;PMS5003;48653;51.742;-1.256;2023-03-21T11:04:15;0;0;
62054;PMS5003;48653;51.742;-1.256;2023-03-21T11:06:38;0;0;
62054;PMS5003;48653;51.742;-1.256;2023-03-21T11:09:05;0;0;
62054;PMS5003;48653;51.742;-1.256;2023-03-21T11:11:33;1;1;
62054;PMS5003;48653;51.742;-1.256;2023-03-21T11:13:56;2;0;
62054;PMS5003;48653;51.742;-1.256;2023-03-21T11:16:22;0;0;
62054;PMS5003;48653;51.742;-1.256;2023-03-21T11:18:48;0;0;
62054;PMS5003;48653;51.742;-1.256;2023-03-21T11:21:12;2;1;
62054;PMS5003;48653;51.742;-1.256;2023-03-21T11:23:38;0;0;
62054;PMS5003;48653;51.742;-1.256;2023-03-21T11:26:02;4;1;
62054;PMS5003;48653;51.742;-1.256;2023-03-21T11:28:31;0;0;
62054;PMS5003;48653;51.742;-1.256;2023-03-21T11:30:53;0;0;
62054;PMS5003;48653;51.742;-1.256;2023-03-21T11:33:18;0;0;
62054;PMS5003;48653;51.742;-1.256;2023-03-21T11:35:42;0;0;
62054;PMS5003;48653;51.742;-1.256;2023-03-21T11:38:09;0;0;
62054;PMS5003;48653;51.742;-1.256;2023-03-21T11:40:33;1;0;
62054;PMS5003;48653;51.742;-1.256;2023-03-21T11:42:58;0;0;
62054;PMS5003;48653;51.742;-1.256;2023-03-21T11:45:23;0;0;
62054;PMS5003;48653;51.742;-1.256;2023-03-21T11:47:47;0;0;
62054;PMS5003;48653;51.742;-1.256;2023-03-21T11:50:14;0;0;
62054;PMS5003;48653;51.742;-1.256;2023-03-21T11:52:40;0;0;
62054;PMS5003;48653;51.742;-1.256;2023-03-21T11:55:07;0;0;
62054;PMS5003;48653;51.742;-1.256;2023-03-21T11:57:29;0;0;
62054;PMS5003;48653;51.742;-1.256;2023-03-21T11:59:54;2;1;
62054;PMS5003;48653;51.742;-1.256;2023-03-21T12:02:24;0;0;
62054;PMS5003;48653;51.742;-1.256;2023-03-21T12:04:44;1;0;
62054;PMS5003;48653;51.742;-1.256;2023-03-21T12:07:13;0;0;
62054;PMS5003;48653;51.742;-1.256;2023-03-21T12:09:34;0;0;
62054;PMS5003;48653;51.742;-1.256;2023-03-21T12:12:00;0;0;
62054;PMS5003;48653;51.742;-1.256;2023-03-21T12:14:24;0;0;
62054;PMS5003;48653;51.742;-1.256;2023-03-21T12:16:51;0;0;
62054;PMS5003;48653;51.742;-1.256;2023-03-21T12:19:20;0;0;
62054;PMS5003;48653;51.742;-1.256;2023-03-21T12:21:38;2;0;
62054;PMS5003;48653;51.742;-1.256;2023-03-21T12:24:05;1;1;
62054;PMS5003;48653;51.742;-1.256;2023-03-21T12:26:29;0;0;
62054;PMS5003;48653;51.742;-1.256;2023-03-21T12:28:58;0;0;
62054;PMS5003;48653;51.742;-1.256;2023-03-21T12:31:20;1;0;
62054;PMS5003;48653;51.742;-1.256;2023-03-21T12:33:47;1;0;
62054;PMS5003;48653;51.742;-1.256;2023-03-21T12:36:12;0;0;
62054;PMS5003;48653;51.742;-1.256;2023-03-21T12:38:35;0;0;
62054;PMS5003;48653;51.742;-1.256;2023-03-21T12:41:02;0;0;
62054;PMS5003;48653;51.742;-1.256;2023-03-21T12:43:29;0;0;
62054;PMS5003;48653;51.742;-1.256;2023-03-21T12:45:49;0;0;
62054;PMS5003;48653;51.742;-1.256;2023-03-21T12:48:15;0;0;
62054;PMS5003;48653;51.742;-1.256;2023-03-21T12:50:39;0;0;
62054;PMS5003;48653;51.742;-1.256;2023-03-21T12:53:13;0;0;
62054;PMS5003;48653;51.742;-1.256;2023-03-21T12:55:29;0;0;
62054;PMS5003;48653;51.742;-1.256;2023-03-21T12:58:00;0;0;
62054;PMS5003;48653;51.742;-1.256;2023-03-21T13:00:20;0;0;
62054;PMS5003;48653;51.742;-1.256;2023-03-21T13:02:45;0;0;
62054;PMS5003;48653;51.742;-1.256;2023-03-21T13:05:12;1;1;
62054;PMS5003;48653;51.742;-1.256;2023-03-21T13:07:35;0;0;
62054;PMS5003;48653;51.742;-1.256;2023-03-21T13:09:59;0;0;
62054;PMS5003;48653;51.742;-1.256;2023-03-21T13:12:31;0;0;
62054;PMS5003;48653;51.742;-1.256;2023-03-21T13:14:54;0;0;
62054;PMS5003;48653;51.742;-1.256;2023-03-21T13:17:18;2;0;
62054;PMS5003;48653;51.742;-1.256;2023-03-21T13:19:42;0;0;
62054;PMS5003;48653;51.742;-1.256;2023-03-21T13:22:10;0;0;
62054;PMS5003;48653;51.742;-1.256;2023-03-21T13:24:37;1;1;
62054;PMS5003;48653;51.742;-1.256;2023-03-21T13:27:01;1;1;
62054;PMS5003;48653;51.742;-1.256;2023-03-21T13:29:24;0;0;
62054;PMS5003;48653;51.742;-1.256;2023-03-21T13:31:48;0;0;
62054;PMS5003;48653;51.742;-1.256;2023-03-21T13:34:14;0;0;
62054;PMS5003;48653;51.742;-1.256;2023-03-21T13:36:39;2;2;
62054;PMS5003;48653;51.742;-1.256;2023-03-21T13:39:04;1;1;
62054;PMS5003;48653;51.742;-1.256;2023-03-21T13:41:30;0;0;
62054;PMS5003;48653;51.742;-1.256;2023-03-21T13:44:04;2;0;
62054;PMS5003;48653;51.742;-1.256;2023-03-21T13:48:54;0;0;
62054;PMS5003;48653;51.742;-1.256;2023-03-21T13:51:10;0;0;
62054;PMS5003;48653;51.742;-1.256;2023-03-21T13:53:35;0;0;
62054;PMS5003;48653;51.742;-1.256;2023-03-21T14:03:15;1;0;
62054;PMS5003;48653;51.742;-1.256;2023-03-21T14:05:40;0;0;
62054;PMS5003;48653;51.742;-1.256;2023-03-21T14:08:06;0;0;
62054;PMS5003;48653;51.742;-1.256;2023-03-21T14:10:32;0;0;
62054;PMS5003;48653;51.742;-1.256;2023-03-21T14:12:55;0;0;
62054;PMS5003;48653;51.742;-1.256;2023-03-21T14:15:21;0;0;
62054;PMS5003;48653;51.742;-1.256;2023-03-21T14:17:49;1;0;
62054;PMS5003;48653;51.742;-1.256;2023-03-21T14:20:13;1;0;
62054;PMS5003;48653;51.742;-1.256;2023-03-21T14:22:37;3;1;
62054;PMS5003;48653;51.742;-1.256;2023-03-21T14:25:03;2;1;
62054;PMS5003;48653;51.742;-1.256;2023-03-21T14:27:29;0;0;
62054;PMS5003;48653;51.742;-1.256;2023-03-21T14:29:54;2;0;
62054;PMS5003;48653;51.742;-1.256;2023-03-21T14:32:21;0;0;
62054;PMS5003;48653;51.742;-1.256;2023-03-21T14:34:43;1;0;
62054;PMS5003;48653;51.742;-1.256;2023-03-21T14:37:09;0;0;
62054;PMS5003;48653;51.742;-1.256;2023-03-21T14:39:33;1;0;
62054;PMS5003;48653;51.742;-1.256;2023-03-21T14:42:01;1;0;
62054;PMS5003;48653;51.742;-1.256;2023-03-21T14:44:24;1;0;
62054;PMS5003;48653;51.742;-1.256;2023-03-21T14:46:48;0;0;
62054;PMS5003;48653;51.742;-1.256;2023-03-21T14:49:18;0;0;
62054;PMS5003;48653;51.742;-1.256;2023-03-21T14:51:38;3;0;
62054;PMS5003;48653;51.742;-1.256;2023-03-21T14:54:04;0;0;
62054;PMS5003;48653;51.742;-1.256;2023-03-21T14:56:28;1;0;
62054;PMS5003;48653;51.742;-1.256;2023-03-21T14:58:54;1;0;
62054;PMS5003;48653;51.742;-1.256;2023-03-21T15:01:20;1;0;
62054;PMS5003;48653;51.742;-1.256;2023-03-21T15:03:44;0;0;
62054;PMS5003;48653;51.742;-1.256;2023-03-21T15:06:10;1;1;
62054;PMS5003;48653;51.742;-1.256;2023-03-21T15:08:34;3;0;
62054;PMS5003;48653;51.742;-1.256;2023-03-21T15:11:00;4;1;
62054;PMS5003;48653;51.742;-1.256;2023-03-21T15:13:25;0;0;
62054;PMS5003;48653;51.742;-1.256;2023-03-21T15:15:49;3;0;
62054;PMS5003;48653;51.742;-1.256;2023-03-21T15:18:16;3;0;
62054;PMS5003;48653;51.742;-1.256;2023-03-21T15:20:39;0;0;
62054;PMS5003;48653;51.742;-1.256;2023-03-21T15:23:05;1;1;
62054;PMS5003;48653;51.742;-1.256;2023-03-21T15:25:31;0;0;
62054;PMS5003;48653;51.742;-1.256;2023-03-21T15:27:54;1;0;
62054;PMS5003;48653;51.742;-1.256;2023-03-21T15:32:44;0;0;
62054;PMS5003;48653;51.742;-1.256;2023-03-21T15:35:12;0;0;
62054;PMS5003;48653;51.742;-1.256;2023-03-21T15:37:35;2;2;
62054;PMS5003;48653;51.742;-1.256;2023-03-21T15:40:07;1;0;
62054;PMS5003;48653;51.742;-1.256;2023-03-21T15:42:27;2;1;
62054;PMS5003;48653;51.742;-1.256;2023-03-21T15:44:54;0;0;
62054;PMS5003;48653;51.742;-1.256;2023-03-21T15:49:44;1;1;
62054;PMS5003;48653;51.742;-1.256;2023-03-21T15:52:11;3;0;
62054;PMS5003;48653;51.742;-1.256;2023-03-21T15:54:40;0;0;
62054;PMS5003;48653;51.742;-1.256;2023-03-21T15:57:02;4;2;
62054;PMS5003;48653;51.742;-1.256;2023-03-21T15:59:26;2;1;
62054;PMS5003;48653;51.742;-1.256;2023-03-21T16:01:51;2;1;
62054;PMS5003;48653;51.742;-1.256;2023-03-21T16:04:16;2;1;
62054;PMS5003;48653;51.742;-1.256;2023-03-21T16:09:09;2;2;
62054;PMS5003;48653;51.742;-1.256;2023-03-21T16:11:36;3;3;
62054;PMS5003;48653;51.742;-1.256;2023-03-21T16:13:56;3;2;
62054;PMS5003;48653;51.742;-1.256;2023-03-21T16:16:22;0;0;
62054;PMS5003;48653;51.742;-1.256;2023-03-21T16:18:46;2;0;
62054;PMS5003;48653;51.742;-1.256;2023-03-21T16:21:11;4;3;
62054;PMS5003;48653;51.742;-1.256;2023-03-21T16:23:36;1;1;
62054;PMS5003;48653;51.742;-1.256;2023-03-21T16:26:01;1;1;
62054;PMS5003;48653;51.742;-1.256;2023-03-21T16:28:26;5;2;
62054;PMS5003;48653;51.742;-1.256;2023-03-21T16:30:51;3;1;
62054;PMS5003;48653;51.742;-1.256;2023-03-21T16:33:16;4;2;
62054;PMS5003;48653;51.742;-1.256;2023-03-21T16:35:41;3;2;
62054;PMS5003;48653;51.742;-1.256;2023-03-21T16:38:08;4;1;
62054;PMS5003;48653;51.742;-1.256;2023-03-21T16:40:33;2;2;
62054;PMS5003;48653;51.742;-1.256;2023-03-21T16:42:57;2;1;
62054;PMS5003;48653;51.742;-1.256;2023-03-21T16:45:22;3;3;
62054;PMS5003;48653;51.742;-1.256;2023-03-21T16:47:47;8;5;